sensor_id;sensor_type;location;lat;lon;timestamp;P1;durP1;ratioP1;P2;durP2;ratioP2
17604;SDS011;8921;50.964;6.800;2022-10-16T00:00:14;5.33;;;2.93;;
17604;SDS011;8921;50.964;6.800;2022-10-16T00:02:42;5.70;;;2.90;;
17604;SDS011;8921;50.964;6.800;2022-10-16T00:05:10;5.80;;;2.60;;
17604;SDS011;8921;50.964;6.800;2022-10-16T00:07:38;5.37;;;2.90;;
17604;SDS011;8921;50.964;6.800;2022-10-16T00:10:07;4.40;;;2.73;;
17604;SDS011;8921;50.964;6.800;2022-10-16T00:12:35;5.60;;;2.90;;
17604;SDS011;8921;50.964;6.800;2022-10-16T00:15:04;4.90;;;3.30;;
17604;SDS011;8921;50.964;6.800;2022-10-16T00:17:32;6.13;;;3.10;;
17604;SDS011;8921;50.964;6.800;2022-10-16T00:20:00;7.00;;;3.43;;
17604;SDS011;8921;50.964;6.800;2022-10-16T00:22:28;6.90;;;3.30;;
17604;SDS011;8921;50.964;6.800;2022-10-16T00:24:57;6.27;;;3.43;;
17604;SDS011;8921;50.964;6.800;2022-10-16T00:27:25;7.30;;;3.37;;
17604;SDS011;8921;50.964;6.800;2022-10-16T00:29:53;4.53;;;2.40;;
17604;SDS011;8921;50.964;6.800;2022-10-16T00:32:22;6.33;;;3.57;;
17604;SDS011;8921;50.964;6.800;2022-10-16T00:34:50;4.60;;;3.00;;
17604;SDS011;8921;50.964;6.800;2022-10-16T00:37:18;5.33;;;2.87;;
17604;SDS011;8921;50.964;6.800;2022-10-16T00:39:46;9.00;;;2.67;;
17604;SDS011;8921;50.964;6.800;2022-10-16T00:42:15;4.97;;;2.47;;
17604;SDS011;8921;50.964;6.800;2022-10-16T00:44:51;4.97;;;2.33;;
17604;SDS011;8921;50.964;6.800;2022-10-16T00:47:25;8.17;;;2.53;;
17604;SDS011;8921;50.964;6.800;2022-10-16T00:49:53;4.93;;;2.80;;
17604;SDS011;8921;50.964;6.800;2022-10-16T00:52:19;5.63;;;2.77;;
17604;SDS011;8921;50.964;6.800;2022-10-16T00:54:48;4.70;;;2.57;;
17604;SDS011;8921;50.964;6.800;2022-10-16T00:57:16;4.33;;;2.40;;
17604;SDS011;8921;50.964;6.800;2022-10-16T00:59:44;6.20;;;2.60;;
17604;SDS011;8921;50.964;6.800;2022-10-16T01:02:14;5.47;;;2.60;;
17604;SDS011;8921;50.964;6.800;2022-10-16T01:04:43;5.47;;;2.87;;
17604;SDS011;8921;50.964;6.800;2022-10-16T01:07:12;5.80;;;2.50;;
17604;SDS011;8921;50.964;6.800;2022-10-16T01:10:05;5.47;;;3.17;;
17604;SDS011;8921;50.964;6.800;2022-10-16T01:12:47;5.00;;;3.10;;
17604;SDS011;8921;50.964;6.800;2022-10-16T01:18:19;7.33;;;3.40;;
17604;SDS011;8921;50.964;6.800;2022-10-16T01:20:50;6.70;;;3.43;;
17604;SDS011;8921;50.964;6.800;2022-10-16T01:23:21;4.47;;;2.80;;
17604;SDS011;8921;50.964;6.800;2022-10-16T01:28:52;4.70;;;3.40;;
17604;SDS011;8921;50.964;6.800;2022-10-16T01:31:20;4.80;;;2.57;;
17604;SDS011;8921;50.964;6.800;2022-10-16T01:33:50;4.90;;;2.97;;
17604;SDS011;8921;50.964;6.800;2022-10-16T01:36:21;5.43;;;3.03;;
17604;SDS011;8921;50.964;6.800;2022-10-16T01:38:47;4.10;;;2.80;;
17604;SDS011;8921;50.964;6.800;2022-10-16T01:41:17;5.30;;;2.87;;
17604;SDS011;8921;50.964;6.800;2022-10-16T01:43:48;5.43;;;3.33;;
17604;SDS011;8921;50.964;6.800;2022-10-16T01:46:15;7.13;;;4.10;;
17604;SDS011;8921;50.964;6.800;2022-10-16T01:48:43;7.23;;;3.17;;
17604;SDS011;8921;50.964;6.800;2022-10-16T01:51:12;4.77;;;2.80;;
17604;SDS011;8921;50.964;6.800;2022-10-16T01:53:40;6.20;;;3.40;;
17604;SDS011;8921;50.964;6.800;2022-10-16T01:56:09;10.40;;;3.80;;
17604;SDS011;8921;50.964;6.800;2022-10-16T01:58:37;8.57;;;3.67;;
17604;SDS011;8921;50.964;6.800;2022-10-16T02:01:04;8.53;;;3.50;;
17604;SDS011;8921;50.964;6.800;2022-10-16T02:03:33;7.20;;;3.93;;
17604;SDS011;8921;50.964;6.800;2022-10-16T02:06:01;6.03;;;3.70;;
17604;SDS011;8921;50.964;6.800;2022-10-16T02:08:29;10.70;;;4.27;;
17604;SDS011;8921;50.964;6.800;2022-10-16T02:10:58;8.00;;;4.33;;
17604;SDS011;8921;50.964;6.800;2022-10-16T02:16:00;6.60;;;4.30;;
17604;SDS011;8921;50.964;6.800;2022-10-16T02:18:29;5.60;;;3.80;;
17604;SDS011;8921;50.964;6.800;2022-10-16T02:23:44;9.27;;;3.90;;
17604;SDS011;8921;50.964;6.800;2022-10-16T02:26:20;7.23;;;4.27;;
17604;SDS011;8921;50.964;6.800;2022-10-16T02:28:46;5.50;;;3.43;;
17604;SDS011;8921;50.964;6.800;2022-10-16T02:31:16;6.43;;;4.20;;
17604;SDS011;8921;50.964;6.800;2022-10-16T02:33:43;5.37;;;3.57;;
17604;SDS011;8921;50.964;6.800;2022-10-16T02:36:11;5.47;;;3.23;;
17604;SDS011;8921;50.964;6.800;2022-10-16T02:38:39;5.50;;;2.90;;
17604;SDS011;8921;50.964;6.800;2022-10-16T02:41:08;6.47;;;3.03;;
17604;SDS011;8921;50.964;6.800;2022-10-16T02:43:36;4.27;;;3.20;;
17604;SDS011;8921;50.964;6.800;2022-10-16T02:46:04;5.63;;;3.70;;
17604;SDS011;8921;50.964;6.800;2022-10-16T02:48:32;5.23;;;3.10;;
17604;SDS011;8921;50.964;6.800;2022-10-16T02:51:01;4.33;;;3.00;;
17604;SDS011;8921;50.964;6.800;2022-10-16T02:53:29;4.63;;;2.73;;
17604;SDS011;8921;50.964;6.800;2022-10-16T02:55:57;8.00;;;2.70;;
17604;SDS011;8921;50.964;6.800;2022-10-16T02:58:26;6.07;;;2.30;;
17604;SDS011;8921;50.964;6.800;2022-10-16T03:00:54;8.43;;;4.63;;
17604;SDS011;8921;50.964;6.800;2022-10-16T03:03:22;6.10;;;2.07;;
17604;SDS011;8921;50.964;6.800;2022-10-16T03:05:50;4.90;;;2.03;;
17604;SDS011;8921;50.964;6.800;2022-10-16T03:08:19;14.67;;;7.57;;
17604;SDS011;8921;50.964;6.800;2022-10-16T03:10:47;10.77;;;5.13;;
17604;SDS011;8921;50.964;6.800;2022-10-16T03:13:15;14.37;;;6.93;;
17604;SDS011;8921;50.964;6.800;2022-10-16T03:15:44;4.00;;;2.20;;
17604;SDS011;8921;50.964;6.800;2022-10-16T03:18:12;3.40;;;1.80;;
17604;SDS011;8921;50.964;6.800;2022-10-16T03:20:41;4.87;;;2.03;;
17604;SDS011;8921;50.964;6.800;2022-10-16T03:23:09;2.80;;;1.30;;
17604;SDS011;8921;50.964;6.800;2022-10-16T03:25:37;3.93;;;1.80;;
17604;SDS011;8921;50.964;6.800;2022-10-16T03:28:05;2.97;;;1.40;;
17604;SDS011;8921;50.964;6.800;2022-10-16T03:30:33;3.30;;;1.70;;
17604;SDS011;8921;50.964;6.800;2022-10-16T03:33:02;6.63;;;2.57;;
17604;SDS011;8921;50.964;6.800;2022-10-16T03:35:30;5.60;;;2.00;;
17604;SDS011;8921;50.964;6.800;2022-10-16T03:37:58;3.27;;;1.50;;
17604;SDS011;8921;50.964;6.800;2022-10-16T03:40:27;3.50;;;1.60;;
17604;SDS011;8921;50.964;6.800;2022-10-16T03:42:55;3.70;;;1.70;;
17604;SDS011;8921;50.964;6.800;2022-10-16T03:45:24;12.13;;;5.30;;
17604;SDS011;8921;50.964;6.800;2022-10-16T03:47:52;5.60;;;3.10;;
17604;SDS011;8921;50.964;6.800;2022-10-16T03:50:20;3.40;;;1.50;;
17604;SDS011;8921;50.964;6.800;2022-10-16T03:52:49;3.33;;;1.43;;
17604;SDS011;8921;50.964;6.800;2022-10-16T03:55:17;3.13;;;1.40;;
17604;SDS011;8921;50.964;6.800;2022-10-16T03:57:45;3.73;;;1.70;;
17604;SDS011;8921;50.964;6.800;2022-10-16T04:00:14;38.60;;;2.43;;
17604;SDS011;8921;50.964;6.800;2022-10-16T04:02:42;2.90;;;1.33;;
17604;SDS011;8921;50.964;6.800;2022-10-16T04:05:10;3.43;;;1.30;;
17604;SDS011;8921;50.964;6.800;2022-10-16T04:07:38;3.97;;;1.77;;
17604;SDS011;8921;50.964;6.800;2022-10-16T04:10:07;5.53;;;2.60;;
17604;SDS011;8921;50.964;6.800;2022-10-16T04:12:35;4.40;;;1.50;;
17604;SDS011;8921;50.964;6.800;2022-10-16T04:15:03;4.30;;;1.77;;
17604;SDS011;8921;50.964;6.800;2022-10-16T04:17:32;3.27;;;1.57;;
17604;SDS011;8921;50.964;6.800;2022-10-16T04:20:00;2.90;;;1.40;;
17604;SDS011;8921;50.964;6.800;2022-10-16T04:22:28;3.60;;;1.53;;
17604;SDS011;8921;50.964;6.800;2022-10-16T04:24:57;3.57;;;1.60;;
17604;SDS011;8921;50.964;6.800;2022-10-16T04:27:25;3.70;;;1.50;;
17604;SDS011;8921;50.964;6.800;2022-10-16T04:29:53;4.60;;;1.60;;
17604;SDS011;8921;50.964;6.800;2022-10-16T04:32:21;2.90;;;1.50;;
17604;SDS011;8921;50.964;6.800;2022-10-16T04:34:50;5.53;;;1.63;;
17604;SDS011;8921;50.964;6.800;2022-10-16T04:37:18;3.27;;;1.50;;
17604;SDS011;8921;50.964;6.800;2022-10-16T04:39:46;6.10;;;2.00;;
17604;SDS011;8921;50.964;6.800;2022-10-16T04:42:14;2.60;;;1.20;;
17604;SDS011;8921;50.964;6.800;2022-10-16T04:44:43;3.20;;;1.27;;
17604;SDS011;8921;50.964;6.800;2022-10-16T04:47:12;6.13;;;1.60;;
17604;SDS011;8921;50.964;6.800;2022-10-16T04:49:39;3.23;;;1.40;;
17604;SDS011;8921;50.964;6.800;2022-10-16T04:52:08;3.00;;;1.77;;
17604;SDS011;8921;50.964;6.800;2022-10-16T04:54:36;2.90;;;1.40;;
17604;SDS011;8921;50.964;6.800;2022-10-16T04:57:04;3.50;;;1.50;;
17604;SDS011;8921;50.964;6.800;2022-10-16T04:59:32;5.33;;;1.50;;
17604;SDS011;8921;50.964;6.800;2022-10-16T05:02:01;4.73;;;2.53;;
17604;SDS011;8921;50.964;6.800;2022-10-16T05:04:29;4.30;;;1.90;;
17604;SDS011;8921;50.964;6.800;2022-10-16T05:06:57;3.73;;;1.83;;
17604;SDS011;8921;50.964;6.800;2022-10-16T05:09:25;3.53;;;1.73;;
17604;SDS011;8921;50.964;6.800;2022-10-16T05:11:54;3.50;;;1.50;;
17604;SDS011;8921;50.964;6.800;2022-10-16T05:14:22;2.90;;;1.37;;
17604;SDS011;8921;50.964;6.800;2022-10-16T05:16:50;4.97;;;2.20;;
17604;SDS011;8921;50.964;6.800;2022-10-16T05:19:18;4.43;;;1.60;;
17604;SDS011;8921;50.964;6.800;2022-10-16T05:21:47;3.53;;;1.63;;
17604;SDS011;8921;50.964;6.800;2022-10-16T05:24:15;3.27;;;1.60;;
17604;SDS011;8921;50.964;6.800;2022-10-16T05:26:43;4.50;;;1.67;;
17604;SDS011;8921;50.964;6.800;2022-10-16T05:29:12;3.50;;;2.00;;
17604;SDS011;8921;50.964;6.800;2022-10-16T05:31:40;4.20;;;2.60;;
17604;SDS011;8921;50.964;6.800;2022-10-16T05:34:08;4.70;;;2.40;;
17604;SDS011;8921;50.964;6.800;2022-10-16T05:36:36;3.60;;;2.40;;
17604;SDS011;8921;50.964;6.800;2022-10-16T05:39:05;4.23;;;2.00;;
17604;SDS011;8921;50.964;6.800;2022-10-16T05:41:33;4.00;;;2.10;;
17604;SDS011;8921;50.964;6.800;2022-10-16T05:44:04;3.27;;;1.80;;
17604;SDS011;8921;50.964;6.800;2022-10-16T05:46:32;3.90;;;2.03;;
17604;SDS011;8921;50.964;6.800;2022-10-16T05:49:01;5.10;;;2.40;;
17604;SDS011;8921;50.964;6.800;2022-10-16T05:51:29;12.50;;;2.60;;
17604;SDS011;8921;50.964;6.800;2022-10-16T05:53:57;5.33;;;3.80;;
17604;SDS011;8921;50.964;6.800;2022-10-16T05:56:25;6.03;;;2.20;;
17604;SDS011;8921;50.964;6.800;2022-10-16T05:58:54;3.80;;;2.10;;
17604;SDS011;8921;50.964;6.800;2022-10-16T06:01:22;8.50;;;3.40;;
17604;SDS011;8921;50.964;6.800;2022-10-16T06:03:51;5.23;;;2.73;;
17604;SDS011;8921;50.964;6.800;2022-10-16T06:06:20;4.70;;;2.13;;
17604;SDS011;8921;50.964;6.800;2022-10-16T06:08:49;5.20;;;3.10;;
17604;SDS011;8921;50.964;6.800;2022-10-16T06:11:20;4.10;;;2.10;;
17604;SDS011;8921;50.964;6.800;2022-10-16T06:13:52;3.40;;;2.00;;
17604;SDS011;8921;50.964;6.800;2022-10-16T06:16:20;4.30;;;3.10;;
17604;SDS011;8921;50.964;6.800;2022-10-16T06:18:50;4.07;;;2.20;;
17604;SDS011;8921;50.964;6.800;2022-10-16T06:21:17;4.80;;;2.50;;
17604;SDS011;8921;50.964;6.800;2022-10-16T06:23:44;4.00;;;2.40;;
17604;SDS011;8921;50.964;6.800;2022-10-16T06:26:14;4.57;;;2.40;;
17604;SDS011;8921;50.964;6.800;2022-10-16T06:28:41;4.13;;;2.23;;
17604;SDS011;8921;50.964;6.800;2022-10-16T06:31:10;7.47;;;3.10;;
17604;SDS011;8921;50.964;6.800;2022-10-16T06:33:38;4.77;;;3.00;;
17604;SDS011;8921;50.964;6.800;2022-10-16T06:36:07;10.00;;;3.43;;
17604;SDS011;8921;50.964;6.800;2022-10-16T06:38:34;5.70;;;2.63;;
17604;SDS011;8921;50.964;6.800;2022-10-16T06:41:03;4.83;;;2.90;;
17604;SDS011;8921;50.964;6.800;2022-10-16T06:43:31;4.20;;;2.37;;
17604;SDS011;8921;50.964;6.800;2022-10-16T06:45:59;6.23;;;2.40;;
17604;SDS011;8921;50.964;6.800;2022-10-16T06:48:28;3.47;;;2.23;;
17604;SDS011;8921;50.964;6.800;2022-10-16T06:51:00;5.80;;;3.70;;
17604;SDS011;8921;50.964;6.800;2022-10-16T06:53:32;4.87;;;2.73;;
17604;SDS011;8921;50.964;6.800;2022-10-16T06:58:36;4.97;;;3.10;;
17604;SDS011;8921;50.964;6.800;2022-10-16T07:01:04;7.50;;;3.00;;
17604;SDS011;8921;50.964;6.800;2022-10-16T07:03:32;4.60;;;2.97;;
17604;SDS011;8921;50.964;6.800;2022-10-16T07:06:02;5.63;;;3.73;;
17604;SDS011;8921;50.964;6.800;2022-10-16T07:08:35;10.40;;;2.90;;
17604;SDS011;8921;50.964;6.800;2022-10-16T07:11:00;4.73;;;3.00;;
17604;SDS011;8921;50.964;6.800;2022-10-16T07:13:28;4.33;;;2.70;;
17604;SDS011;8921;50.964;6.800;2022-10-16T07:15:56;11.03;;;3.00;;
17604;SDS011;8921;50.964;6.800;2022-10-16T07:18:25;4.57;;;3.00;;
17604;SDS011;8921;50.964;6.800;2022-10-16T07:20:53;5.10;;;2.90;;
17604;SDS011;8921;50.964;6.800;2022-10-16T07:23:21;8.13;;;2.70;;
17604;SDS011;8921;50.964;6.800;2022-10-16T07:25:53;4.47;;;2.63;;
17604;SDS011;8921;50.964;6.800;2022-10-16T07:28:21;5.00;;;3.27;;
17604;SDS011;8921;50.964;6.800;2022-10-16T07:30:49;4.70;;;2.80;;
17604;SDS011;8921;50.964;6.800;2022-10-16T07:33:18;7.43;;;2.37;;
17604;SDS011;8921;50.964;6.800;2022-10-16T07:35:50;5.30;;;2.67;;
17604;SDS011;8921;50.964;6.800;2022-10-16T07:38:20;7.53;;;3.93;;
17604;SDS011;8921;50.964;6.800;2022-10-16T07:40:55;17.13;;;4.77;;
17604;SDS011;8921;50.964;6.800;2022-10-16T07:43:16;6.23;;;3.03;;
17604;SDS011;8921;50.964;6.800;2022-10-16T07:45:47;4.53;;;3.17;;
17604;SDS011;8921;50.964;6.800;2022-10-16T07:48:16;5.80;;;2.73;;
17604;SDS011;8921;50.964;6.800;2022-10-16T07:50:44;5.80;;;2.60;;
17604;SDS011;8921;50.964;6.800;2022-10-16T07:53:12;5.40;;;2.60;;
17604;SDS011;8921;50.964;6.800;2022-10-16T07:55:40;4.93;;;2.50;;
17604;SDS011;8921;50.964;6.800;2022-10-16T07:58:09;3.90;;;2.23;;
17604;SDS011;8921;50.964;6.800;2022-10-16T08:00:37;4.00;;;2.30;;
17604;SDS011;8921;50.964;6.800;2022-10-16T08:03:05;4.37;;;1.90;;
17604;SDS011;8921;50.964;6.800;2022-10-16T08:05:33;3.93;;;2.13;;
17604;SDS011;8921;50.964;6.800;2022-10-16T08:08:02;4.43;;;2.60;;
17604;SDS011;8921;50.964;6.800;2022-10-16T08:10:30;4.83;;;2.50;;
17604;SDS011;8921;50.964;6.800;2022-10-16T08:12:58;4.00;;;1.80;;
17604;SDS011;8921;50.964;6.800;2022-10-16T08:15:26;5.20;;;1.90;;
17604;SDS011;8921;50.964;6.800;2022-10-16T08:17:58;3.33;;;2.10;;
17604;SDS011;8921;50.964;6.800;2022-10-16T08:20:26;3.53;;;1.57;;
17604;SDS011;8921;50.964;6.800;2022-10-16T08:22:54;4.63;;;1.53;;
17604;SDS011;8921;50.964;6.800;2022-10-16T08:25:23;3.90;;;1.77;;
17604;SDS011;8921;50.964;6.800;2022-10-16T08:27:51;4.40;;;1.80;;
17604;SDS011;8921;50.964;6.800;2022-10-16T08:30:20;4.40;;;2.00;;
17604;SDS011;8921;50.964;6.800;2022-10-16T08:32:47;3.40;;;1.80;;
17604;SDS011;8921;50.964;6.800;2022-10-16T08:35:16;3.63;;;1.30;;
17604;SDS011;8921;50.964;6.800;2022-10-16T08:37:44;5.23;;;1.60;;
17604;SDS011;8921;50.964;6.800;2022-10-16T08:40:19;3.20;;;1.40;;
17604;SDS011;8921;50.964;6.800;2022-10-16T08:42:59;3.80;;;1.60;;
17604;SDS011;8921;50.964;6.800;2022-10-16T08:50:32;3.43;;;1.57;;
17604;SDS011;8921;50.964;6.800;2022-10-16T08:53:00;3.50;;;1.50;;
17604;SDS011;8921;50.964;6.800;2022-10-16T08:58:00;3.50;;;1.80;;
17604;SDS011;8921;50.964;6.800;2022-10-16T09:00:28;7.43;;;1.50;;
17604;SDS011;8921;50.964;6.800;2022-10-16T09:02:59;6.87;;;1.77;;
17604;SDS011;8921;50.964;6.800;2022-10-16T09:18:58;7.23;;;1.37;;
17604;SDS011;8921;50.964;6.800;2022-10-16T09:21:24;3.80;;;1.40;;
17604;SDS011;8921;50.964;6.800;2022-10-16T09:23:51;3.00;;;1.20;;
17604;SDS011;8921;50.964;6.800;2022-10-16T09:26:19;3.87;;;2.00;;
17604;SDS011;8921;50.964;6.800;2022-10-16T09:28:48;3.63;;;1.20;;
17604;SDS011;8921;50.964;6.800;2022-10-16T09:31:17;2.93;;;1.10;;
17604;SDS011;8921;50.964;6.800;2022-10-16T09:33:45;3.97;;;1.13;;
17604;SDS011;8921;50.964;6.800;2022-10-16T09:36:13;3.43;;;1.20;;
17604;SDS011;8921;50.964;6.800;2022-10-16T09:38:41;3.10;;;1.20;;
17604;SDS011;8921;50.964;6.800;2022-10-16T09:43:48;5.20;;;1.50;;
17604;SDS011;8921;50.964;6.800;2022-10-16T09:46:30;3.33;;;1.23;;
17604;SDS011;8921;50.964;6.800;2022-10-16T09:48:59;5.17;;;1.20;;
17604;SDS011;8921;50.964;6.800;2022-10-16T09:51:30;5.43;;;1.10;;
17604;SDS011;8921;50.964;6.800;2022-10-16T09:54:01;3.23;;;1.13;;
17604;SDS011;8921;50.964;6.800;2022-10-16T09:56:31;3.30;;;1.30;;
17604;SDS011;8921;50.964;6.800;2022-10-16T09:58:57;4.37;;;1.20;;
17604;SDS011;8921;50.964;6.800;2022-10-16T10:01:28;3.27;;;1.37;;
17604;SDS011;8921;50.964;6.800;2022-10-16T10:03:55;3.13;;;1.10;;
17604;SDS011;8921;50.964;6.800;2022-10-16T10:06:22;3.70;;;1.40;;
17604;SDS011;8921;50.964;6.800;2022-10-16T10:08:53;3.70;;;1.53;;
17604;SDS011;8921;50.964;6.800;2022-10-16T10:11:36;3.67;;;1.50;;
17604;SDS011;8921;50.964;6.800;2022-10-16T10:16:44;4.40;;;1.10;;
17604;SDS011;8921;50.964;6.800;2022-10-16T10:19:16;3.00;;;1.07;;
17604;SDS011;8921;50.964;6.800;2022-10-16T10:21:44;3.57;;;1.00;;
17604;SDS011;8921;50.964;6.800;2022-10-16T10:24:13;2.80;;;1.00;;
17604;SDS011;8921;50.964;6.800;2022-10-16T10:32:11;4.40;;;1.27;;
17604;SDS011;8921;50.964;6.800;2022-10-16T10:39:53;6.10;;;1.50;;
17604;SDS011;8921;50.964;6.800;2022-10-16T10:42:25;3.40;;;1.23;;
17604;SDS011;8921;50.964;6.800;2022-10-16T10:47:42;5.30;;;1.43;;
17604;SDS011;8921;50.964;6.800;2022-10-16T10:52:58;9.73;;;2.00;;
17604;SDS011;8921;50.964;6.800;2022-10-16T10:55:39;3.40;;;1.20;;
17604;SDS011;8921;50.964;6.800;2022-10-16T11:01:16;3.77;;;1.20;;
17604;SDS011;8921;50.964;6.800;2022-10-16T11:06:33;3.70;;;1.20;;
17604;SDS011;8921;50.964;6.800;2022-10-16T11:09:18;7.53;;;1.20;;
17604;SDS011;8921;50.964;6.800;2022-10-16T11:11:45;6.13;;;1.40;;
17604;SDS011;8921;50.964;6.800;2022-10-16T11:14:19;3.83;;;0.90;;
17604;SDS011;8921;50.964;6.800;2022-10-16T11:16:54;2.90;;;1.17;;
17604;SDS011;8921;50.964;6.800;2022-10-16T11:19:25;4.03;;;1.33;;
17604;SDS011;8921;50.964;6.800;2022-10-16T11:24:42;3.00;;;1.10;;
17604;SDS011;8921;50.964;6.800;2022-10-16T11:27:11;4.40;;;1.27;;
17604;SDS011;8921;50.964;6.800;2022-10-16T11:29:40;3.93;;;1.47;;
17604;SDS011;8921;50.964;6.800;2022-10-16T11:32:09;3.10;;;1.00;;
17604;SDS011;8921;50.964;6.800;2022-10-16T11:34:53;3.30;;;1.17;;
17604;SDS011;8921;50.964;6.800;2022-10-16T11:37:19;2.83;;;1.00;;
17604;SDS011;8921;50.964;6.800;2022-10-16T11:39:45;4.37;;;1.50;;
17604;SDS011;8921;50.964;6.800;2022-10-16T11:42:18;4.50;;;1.10;;
17604;SDS011;8921;50.964;6.800;2022-10-16T11:47:35;4.90;;;1.10;;
17604;SDS011;8921;50.964;6.800;2022-10-16T11:50:06;3.43;;;1.17;;
17604;SDS011;8921;50.964;6.800;2022-10-16T11:54:59;3.53;;;1.40;;
17604;SDS011;8921;50.964;6.800;2022-10-16T11:57:28;5.23;;;1.30;;
17604;SDS011;8921;50.964;6.800;2022-10-16T11:59:58;3.70;;;1.17;;
17604;SDS011;8921;50.964;6.800;2022-10-16T12:08:11;4.50;;;1.17;;
17604;SDS011;8921;50.964;6.800;2022-10-16T12:10:40;3.70;;;1.40;;
17604;SDS011;8921;50.964;6.800;2022-10-16T12:18:41;3.67;;;1.20;;
17604;SDS011;8921;50.964;6.800;2022-10-16T12:21:09;3.67;;;1.03;;
17604;SDS011;8921;50.964;6.800;2022-10-16T12:23:38;5.67;;;2.00;;
17604;SDS011;8921;50.964;6.800;2022-10-16T12:26:05;4.00;;;1.13;;
17604;SDS011;8921;50.964;6.800;2022-10-16T12:28:34;3.90;;;1.03;;
17604;SDS011;8921;50.964;6.800;2022-10-16T12:31:05;3.87;;;1.33;;
17604;SDS011;8921;50.964;6.800;2022-10-16T12:33:34;3.43;;;1.20;;
17604;SDS011;8921;50.964;6.800;2022-10-16T12:36:05;3.97;;;1.40;;
17604;SDS011;8921;50.964;6.800;2022-10-16T12:38:45;3.90;;;1.07;;
17604;SDS011;8921;50.964;6.800;2022-10-16T12:41:07;6.80;;;1.53;;
17604;SDS011;8921;50.964;6.800;2022-10-16T12:43:39;4.30;;;1.13;;
17604;SDS011;8921;50.964;6.800;2022-10-16T12:48:37;2.73;;;0.90;;
17604;SDS011;8921;50.964;6.800;2022-10-16T12:51:22;4.30;;;1.10;;
17604;SDS011;8921;50.964;6.800;2022-10-16T12:54:01;6.70;;;2.77;;
17604;SDS011;8921;50.964;6.800;2022-10-16T12:56:38;4.10;;;1.10;;
17604;SDS011;8921;50.964;6.800;2022-10-16T12:59:21;3.17;;;0.90;;
17604;SDS011;8921;50.964;6.800;2022-10-16T13:07:19;7.10;;;1.13;;
17604;SDS011;8921;50.964;6.800;2022-10-16T13:23:15;4.47;;;1.37;;
17604;SDS011;8921;50.964;6.800;2022-10-16T13:28:11;3.73;;;1.20;;
17604;SDS011;8921;50.964;6.800;2022-10-16T13:30:43;4.97;;;1.50;;
17604;SDS011;8921;50.964;6.800;2022-10-16T13:33:14;8.30;;;1.73;;
17604;SDS011;8921;50.964;6.800;2022-10-16T13:35:50;4.83;;;1.93;;
17604;SDS011;8921;50.964;6.800;2022-10-16T13:38:19;5.10;;;2.30;;
17604;SDS011;8921;50.964;6.800;2022-10-16T13:40:50;4.40;;;1.23;;
17604;SDS011;8921;50.964;6.800;2022-10-16T13:43:25;3.90;;;1.20;;
17604;SDS011;8921;50.964;6.800;2022-10-16T13:46:12;3.47;;;1.00;;
17604;SDS011;8921;50.964;6.800;2022-10-16T13:48:35;2.80;;;1.00;;
17604;SDS011;8921;50.964;6.800;2022-10-16T13:51:13;2.93;;;0.90;;
17604;SDS011;8921;50.964;6.800;2022-10-16T13:53:44;2.70;;;1.00;;
17604;SDS011;8921;50.964;6.800;2022-10-16T13:56:14;3.83;;;1.00;;
17604;SDS011;8921;50.964;6.800;2022-10-16T13:58:40;3.73;;;1.23;;
17604;SDS011;8921;50.964;6.800;2022-10-16T14:01:15;5.23;;;2.17;;
17604;SDS011;8921;50.964;6.800;2022-10-16T14:03:46;2.90;;;1.03;;
17604;SDS011;8921;50.964;6.800;2022-10-16T14:06:15;3.83;;;1.10;;
17604;SDS011;8921;50.964;6.800;2022-10-16T14:08:45;4.50;;;1.00;;
17604;SDS011;8921;50.964;6.800;2022-10-16T14:11:11;3.60;;;1.10;;
17604;SDS011;8921;50.964;6.800;2022-10-16T14:13:42;4.00;;;1.10;;
17604;SDS011;8921;50.964;6.800;2022-10-16T14:16:09;3.27;;;0.97;;
17604;SDS011;8921;50.964;6.800;2022-10-16T14:18:37;3.27;;;1.20;;
17604;SDS011;8921;50.964;6.800;2022-10-16T14:21:06;3.40;;;1.00;;
17604;SDS011;8921;50.964;6.800;2022-10-16T14:23:37;3.20;;;1.20;;
17604;SDS011;8921;50.964;6.800;2022-10-16T14:28:41;4.50;;;1.10;;
17604;SDS011;8921;50.964;6.800;2022-10-16T14:33:47;3.70;;;1.10;;
17604;SDS011;8921;50.964;6.800;2022-10-16T14:36:15;3.87;;;1.00;;
17604;SDS011;8921;50.964;6.800;2022-10-16T14:41:31;3.73;;;1.20;;
17604;SDS011;8921;50.964;6.800;2022-10-16T14:44:02;5.50;;;1.20;;
17604;SDS011;8921;50.964;6.800;2022-10-16T14:46:31;3.50;;;1.00;;
17604;SDS011;8921;50.964;6.800;2022-10-16T14:49:03;3.10;;;1.00;;
17604;SDS011;8921;50.964;6.800;2022-10-16T14:51:38;3.10;;;1.00;;
17604;SDS011;8921;50.964;6.800;2022-10-16T14:54:09;3.23;;;0.90;;
17604;SDS011;8921;50.964;6.800;2022-10-16T14:56:45;3.10;;;1.00;;
17604;SDS011;8921;50.964;6.800;2022-10-16T14:59:19;3.50;;;1.10;;
17604;SDS011;8921;50.964;6.800;2022-10-16T15:01:48;3.67;;;1.00;;
17604;SDS011;8921;50.964;6.800;2022-10-16T15:04:17;3.00;;;1.00;;
17604;SDS011;8921;50.964;6.800;2022-10-16T15:06:45;3.00;;;1.10;;
17604;SDS011;8921;50.964;6.800;2022-10-16T15:09:13;4.50;;;1.33;;
17604;SDS011;8921;50.964;6.800;2022-10-16T15:11:42;4.00;;;1.37;;
17604;SDS011;8921;50.964;6.800;2022-10-16T15:14:13;7.53;;;1.37;;
17604;SDS011;8921;50.964;6.800;2022-10-16T15:16:41;3.40;;;1.00;;
17604;SDS011;8921;50.964;6.800;2022-10-16T15:19:09;2.70;;;0.90;;
17604;SDS011;8921;50.964;6.800;2022-10-16T15:21:38;4.23;;;1.20;;
17604;SDS011;8921;50.964;6.800;2022-10-16T15:24:08;3.60;;;1.10;;
17604;SDS011;8921;50.964;6.800;2022-10-16T15:26:34;4.40;;;1.00;;
17604;SDS011;8921;50.964;6.800;2022-10-16T15:29:02;4.67;;;1.00;;
17604;SDS011;8921;50.964;6.800;2022-10-16T15:31:31;3.00;;;1.17;;
17604;SDS011;8921;50.964;6.800;2022-10-16T15:33:59;4.63;;;1.87;;
17604;SDS011;8921;50.964;6.800;2022-10-16T15:36:35;3.17;;;1.20;;
17604;SDS011;8921;50.964;6.800;2022-10-16T15:39:04;5.03;;;1.33;;
17604;SDS011;8921;50.964;6.800;2022-10-16T15:41:32;5.47;;;1.13;;
17604;SDS011;8921;50.964;6.800;2022-10-16T15:44:00;2.90;;;1.20;;
17604;SDS011;8921;50.964;6.800;2022-10-16T15:46:29;4.30;;;1.20;;
17604;SDS011;8921;50.964;6.800;2022-10-16T15:48:57;3.03;;;1.30;;
17604;SDS011;8921;50.964;6.800;2022-10-16T15:51:25;5.03;;;1.13;;
17604;SDS011;8921;50.964;6.800;2022-10-16T15:53:56;4.13;;;1.20;;
17604;SDS011;8921;50.964;6.800;2022-10-16T15:56:25;3.47;;;1.00;;
17604;SDS011;8921;50.964;6.800;2022-10-16T15:58:53;4.60;;;1.17;;
17604;SDS011;8921;50.964;6.800;2022-10-16T16:01:21;7.50;;;1.83;;
17604;SDS011;8921;50.964;6.800;2022-10-16T16:03:52;4.50;;;1.30;;
17604;SDS011;8921;50.964;6.800;2022-10-16T16:06:18;3.23;;;1.20;;
17604;SDS011;8921;50.964;6.800;2022-10-16T16:08:46;3.40;;;1.30;;
17604;SDS011;8921;50.964;6.800;2022-10-16T16:11:14;4.00;;;1.40;;
17604;SDS011;8921;50.964;6.800;2022-10-16T16:13:43;3.27;;;1.30;;
17604;SDS011;8921;50.964;6.800;2022-10-16T16:16:12;3.30;;;1.30;;
17604;SDS011;8921;50.964;6.800;2022-10-16T16:18:39;4.70;;;1.30;;
17604;SDS011;8921;50.964;6.800;2022-10-16T16:21:08;3.00;;;1.00;;
17604;SDS011;8921;50.964;6.800;2022-10-16T16:23:36;3.80;;;1.60;;
17604;SDS011;8921;50.964;6.800;2022-10-16T16:28:32;3.33;;;1.20;;
17604;SDS011;8921;50.964;6.800;2022-10-16T16:31:01;5.00;;;1.30;;
17604;SDS011;8921;50.964;6.800;2022-10-16T16:33:29;3.87;;;1.43;;
17604;SDS011;8921;50.964;6.800;2022-10-16T16:35:58;5.30;;;1.57;;
17604;SDS011;8921;50.964;6.800;2022-10-16T16:38:26;4.07;;;1.50;;
17604;SDS011;8921;50.964;6.800;2022-10-16T16:40:54;4.37;;;1.60;;
17604;SDS011;8921;50.964;6.800;2022-10-16T16:43:23;5.90;;;1.77;;
17604;SDS011;8921;50.964;6.800;2022-10-16T16:45:50;12.60;;;1.57;;
17604;SDS011;8921;50.964;6.800;2022-10-16T16:48:19;5.00;;;1.87;;
17604;SDS011;8921;50.964;6.800;2022-10-16T16:50:47;3.50;;;1.30;;
17604;SDS011;8921;50.964;6.800;2022-10-16T16:53:15;3.93;;;1.63;;
17604;SDS011;8921;50.964;6.800;2022-10-16T16:55:43;3.00;;;1.20;;
17604;SDS011;8921;50.964;6.800;2022-10-16T16:58:12;3.10;;;1.10;;
17604;SDS011;8921;50.964;6.800;2022-10-16T17:00:46;4.63;;;2.23;;
17604;SDS011;8921;50.964;6.800;2022-10-16T17:03:14;3.10;;;1.33;;
17604;SDS011;8921;50.964;6.800;2022-10-16T17:05:42;3.50;;;1.63;;
17604;SDS011;8921;50.964;6.800;2022-10-16T17:08:11;4.70;;;1.20;;